sensor_id;sensor_type;location;lat;lon;timestamp;P1;durP1;ratioP1;P2;durP2;ratioP2
38513;SDS011;24282;48.400;10.808;2023-12-04T00:01:16;17.43;;;11.23;;
38513;SDS011;24282;48.400;10.808;2023-12-04T00:03:42;15.63;;;10.97;;
38513;SDS011;24282;48.400;10.808;2023-12-04T00:06:10;16.13;;;11.30;;
38513;SDS011;24282;48.400;10.808;2023-12-04T00:08:36;16.53;;;10.67;;
38513;SDS011;24282;48.400;10.808;2023-12-04T00:11:03;20.50;;;12.30;;
38513;SDS011;24282;48.400;10.808;2023-12-04T00:13:30;17.77;;;11.60;;
38513;SDS011;24282;48.400;10.808;2023-12-04T00:15:55;15.50;;;10.80;;
38513;SDS011;24282;48.400;10.808;2023-12-04T00:18:21;15.90;;;11.43;;
38513;SDS011;24282;48.400;10.808;2023-12-04T00:20:47;17.23;;;11.20;;
38513;SDS011;24282;48.400;10.808;2023-12-04T00:23:12;18.17;;;11.93;;
38513;SDS011;24282;48.400;10.808;2023-12-04T00:25:38;17.77;;;11.83;;
38513;SDS011;24282;48.400;10.808;2023-12-04T00:28:04;16.67;;;11.20;;
38513;SDS011;24282;48.400;10.808;2023-12-04T00:30:29;17.60;;;11.77;;
38513;SDS011;24282;48.400;10.808;2023-12-04T00:32:55;16.60;;;10.63;;
38513;SDS011;24282;48.400;10.808;2023-12-04T00:35:21;16.47;;;10.83;;
38513;SDS011;24282;48.400;10.808;2023-12-04T00:37:46;16.20;;;11.07;;
38513;SDS011;24282;48.400;10.808;2023-12-04T00:40:12;16.07;;;10.67;;
38513;SDS011;24282;48.400;10.808;2023-12-04T00:42:38;17.30;;;10.97;;
38513;SDS011;24282;48.400;10.808;2023-12-04T00:45:04;18.90;;;11.33;;
38513;SDS011;24282;48.400;10.808;2023-12-04T00:47:30;18.30;;;11.23;;
38513;SDS011;24282;48.400;10.808;2023-12-04T00:49:56;16.13;;;11.30;;
38513;SDS011;24282;48.400;10.808;2023-12-04T00:52:21;18.30;;;10.83;;
38513;SDS011;24282;48.400;10.808;2023-12-04T00:54:47;16.70;;;10.20;;
38513;SDS011;24282;48.400;10.808;2023-12-04T00:57:13;15.47;;;10.23;;
38513;SDS011;24282;48.400;10.808;2023-12-04T00:59:38;15.77;;;10.37;;
38513;SDS011;24282;48.400;10.808;2023-12-04T01:02:06;15.13;;;10.33;;
38513;SDS011;24282;48.400;10.808;2023-12-04T01:04:32;17.27;;;11.23;;
38513;SDS011;24282;48.400;10.808;2023-12-04T01:06:58;16.33;;;10.13;;
38513;SDS011;24282;48.400;10.808;2023-12-04T01:09:24;13.53;;;9.83;;
38513;SDS011;24282;48.400;10.808;2023-12-04T01:11:51;15.80;;;10.43;;
38513;SDS011;24282;48.400;10.808;2023-12-04T01:14:18;12.63;;;8.33;;
38513;SDS011;24282;48.400;10.808;2023-12-04T01:16:43;15.50;;;10.20;;
38513;SDS011;24282;48.400;10.808;2023-12-04T01:19:09;16.63;;;11.43;;
38513;SDS011;24282;48.400;10.808;2023-12-04T01:21:35;18.83;;;11.23;;
38513;SDS011;24282;48.400;10.808;2023-12-04T01:24:00;15.67;;;9.93;;
38513;SDS011;24282;48.400;10.808;2023-12-04T01:26:26;17.03;;;11.17;;
38513;SDS011;24282;48.400;10.808;2023-12-04T01:28:52;17.23;;;11.20;;
38513;SDS011;24282;48.400;10.808;2023-12-04T01:31:17;15.63;;;11.03;;
38513;SDS011;24282;48.400;10.808;2023-12-04T01:33:43;16.07;;;11.00;;
38513;SDS011;24282;48.400;10.808;2023-12-04T01:36:09;17.30;;;11.07;;
38513;SDS011;24282;48.400;10.808;2023-12-04T01:38:36;14.47;;;9.83;;
38513;SDS011;24282;48.400;10.808;2023-12-04T01:41:02;15.47;;;9.87;;
38513;SDS011;24282;48.400;10.808;2023-12-04T01:43:28;15.23;;;9.80;;
38513;SDS011;24282;48.400;10.808;2023-12-04T01:45:54;16.03;;;10.73;;
38513;SDS011;24282;48.400;10.808;2023-12-04T01:48:20;15.57;;;9.97;;
38513;SDS011;24282;48.400;10.808;2023-12-04T01:50:46;15.87;;;10.20;;
38513;SDS011;24282;48.400;10.808;2023-12-04T01:53:12;15.47;;;9.50;;
38513;SDS011;24282;48.400;10.808;2023-12-04T01:55:38;14.93;;;9.27;;
38513;SDS011;24282;48.400;10.808;2023-12-04T01:58:04;14.10;;;8.83;;
38513;SDS011;24282;48.400;10.808;2023-12-04T02:00:31;14.40;;;9.73;;
38513;SDS011;24282;48.400;10.808;2023-12-04T02:02:57;13.07;;;8.23;;
38513;SDS011;24282;48.400;10.808;2023-12-04T02:05:24;13.20;;;8.83;;
38513;SDS011;24282;48.400;10.808;2023-12-04T02:07:52;11.47;;;8.07;;
38513;SDS011;24282;48.400;10.808;2023-12-04T02:10:18;13.97;;;8.43;;
38513;SDS011;24282;48.400;10.808;2023-12-04T02:12:44;11.90;;;7.93;;
38513;SDS011;24282;48.400;10.808;2023-12-04T02:15:10;10.27;;;7.37;;
38513;SDS011;24282;48.400;10.808;2023-12-04T02:17:36;12.67;;;9.33;;
38513;SDS011;24282;48.400;10.808;2023-12-04T02:20:02;11.80;;;8.60;;
38513;SDS011;24282;48.400;10.808;2023-12-04T02:22:30;14.07;;;9.07;;
38513;SDS011;24282;48.400;10.808;2023-12-04T02:24:55;15.90;;;8.93;;
38513;SDS011;24282;48.400;10.808;2023-12-04T02:27:28;13.37;;;9.47;;
38513;SDS011;24282;48.400;10.808;2023-12-04T02:29:59;12.70;;;8.57;;
38513;SDS011;24282;48.400;10.808;2023-12-04T02:32:30;11.90;;;8.37;;
38513;SDS011;24282;48.400;10.808;2023-12-04T02:34:59;17.20;;;9.77;;
38513;SDS011;24282;48.400;10.808;2023-12-04T02:37:29;14.90;;;10.03;;
38513;SDS011;24282;48.400;10.808;2023-12-04T02:39:55;15.20;;;8.93;;
38513;SDS011;24282;48.400;10.808;2023-12-04T02:42:22;17.17;;;10.27;;
38513;SDS011;24282;48.400;10.808;2023-12-04T02:44:50;15.10;;;9.30;;
38513;SDS011;24282;48.400;10.808;2023-12-04T02:47:16;13.27;;;8.87;;
38513;SDS011;24282;48.400;10.808;2023-12-04T02:49:42;15.97;;;9.67;;
38513;SDS011;24282;48.400;10.808;2023-12-04T02:52:08;15.67;;;9.50;;
38513;SDS011;24282;48.400;10.808;2023-12-04T02:54:34;16.77;;;9.57;;
38513;SDS011;24282;48.400;10.808;2023-12-04T02:56:59;15.93;;;10.03;;
38513;SDS011;24282;48.400;10.808;2023-12-04T02:59:25;13.83;;;9.27;;
38513;SDS011;24282;48.400;10.808;2023-12-04T03:01:51;15.13;;;9.87;;
38513;SDS011;24282;48.400;10.808;2023-12-04T03:04:16;14.13;;;9.40;;
38513;SDS011;24282;48.400;10.808;2023-12-04T03:06:44;13.73;;;9.57;;
38513;SDS011;24282;48.400;10.808;2023-12-04T03:09:09;14.77;;;9.30;;
38513;SDS011;24282;48.400;10.808;2023-12-04T03:11:35;13.97;;;8.57;;
38513;SDS011;24282;48.400;10.808;2023-12-04T03:14:04;15.90;;;10.13;;
38513;SDS011;24282;48.400;10.808;2023-12-04T03:16:29;16.03;;;9.47;;
38513;SDS011;24282;48.400;10.808;2023-12-04T03:18:55;14.37;;;9.53;;
38513;SDS011;24282;48.400;10.808;2023-12-04T03:21:21;13.13;;;9.10;;
38513;SDS011;24282;48.400;10.808;2023-12-04T03:23:46;12.60;;;9.00;;
38513;SDS011;24282;48.400;10.808;2023-12-04T03:26:12;13.90;;;9.50;;
38513;SDS011;24282;48.400;10.808;2023-12-04T03:28:38;14.10;;;9.07;;
38513;SDS011;24282;48.400;10.808;2023-12-04T03:31:05;12.23;;;8.53;;
38513;SDS011;24282;48.400;10.808;2023-12-04T03:33:31;13.27;;;8.60;;
38513;SDS011;24282;48.400;10.808;2023-12-04T03:35:57;14.17;;;8.57;;
38513;SDS011;24282;48.400;10.808;2023-12-04T03:38:26;12.87;;;9.20;;
38513;SDS011;24282;48.400;10.808;2023-12-04T03:40:52;13.00;;;9.03;;
38513;SDS011;24282;48.400;10.808;2023-12-04T03:43:18;13.87;;;9.27;;
38513;SDS011;24282;48.400;10.808;2023-12-04T03:45:43;13.50;;;8.50;;
38513;SDS011;24282;48.400;10.808;2023-12-04T03:48:09;14.33;;;10.07;;
38513;SDS011;24282;48.400;10.808;2023-12-04T03:50:35;15.47;;;10.13;;
38513;SDS011;24282;48.400;10.808;2023-12-04T03:53:01;13.13;;;8.83;;
38513;SDS011;24282;48.400;10.808;2023-12-04T03:55:27;14.17;;;9.57;;
38513;SDS011;24282;48.400;10.808;2023-12-04T03:57:53;14.63;;;9.43;;
38513;SDS011;24282;48.400;10.808;2023-12-04T04:00:19;14.13;;;9.63;;
38513;SDS011;24282;48.400;10.808;2023-12-04T04:02:45;14.67;;;8.60;;
38513;SDS011;24282;48.400;10.808;2023-12-04T04:05:11;13.37;;;8.33;;
38513;SDS011;24282;48.400;10.808;2023-12-04T04:07:37;16.77;;;9.47;;
38513;SDS011;24282;48.400;10.808;2023-12-04T04:10:03;12.57;;;8.30;;
38513;SDS011;24282;48.400;10.808;2023-12-04T04:12:32;15.30;;;8.90;;
38513;SDS011;24282;48.400;10.808;2023-12-04T04:14:58;13.50;;;8.00;;
38513;SDS011;24282;48.400;10.808;2023-12-04T04:17:24;15.80;;;9.57;;
38513;SDS011;24282;48.400;10.808;2023-12-04T04:19:53;14.77;;;9.10;;
38513;SDS011;24282;48.400;10.808;2023-12-04T04:22:19;14.47;;;9.77;;
38513;SDS011;24282;48.400;10.808;2023-12-04T04:24:46;12.20;;;8.70;;
38513;SDS011;24282;48.400;10.808;2023-12-04T04:27:12;14.50;;;9.03;;
38513;SDS011;24282;48.400;10.808;2023-12-04T04:29:37;15.10;;;9.33;;
38513;SDS011;24282;48.400;10.808;2023-12-04T04:32:03;14.40;;;9.07;;
38513;SDS011;24282;48.400;10.808;2023-12-04T04:34:29;16.20;;;8.57;;
38513;SDS011;24282;48.400;10.808;2023-12-04T04:36:55;15.30;;;10.27;;
38513;SDS011;24282;48.400;10.808;2023-12-04T04:39:20;14.10;;;9.07;;
38513;SDS011;24282;48.400;10.808;2023-12-04T04:41:46;13.57;;;9.20;;
38513;SDS011;24282;48.400;10.808;2023-12-04T04:44:12;11.77;;;8.10;;
38513;SDS011;24282;48.400;10.808;2023-12-04T04:46:38;15.30;;;8.87;;
38513;SDS011;24282;48.400;10.808;2023-12-04T04:49:03;13.53;;;9.00;;
38513;SDS011;24282;48.400;10.808;2023-12-04T04:51:32;16.00;;;9.73;;
38513;SDS011;24282;48.400;10.808;2023-12-04T04:54:01;13.53;;;8.70;;
38513;SDS011;24282;48.400;10.808;2023-12-04T04:56:28;14.63;;;9.07;;
38513;SDS011;24282;48.400;10.808;2023-12-04T04:58:54;13.90;;;9.40;;
38513;SDS011;24282;48.400;10.808;2023-12-04T05:01:20;17.10;;;9.53;;
38513;SDS011;24282;48.400;10.808;2023-12-04T05:03:46;13.50;;;8.80;;
38513;SDS011;24282;48.400;10.808;2023-12-04T05:06:12;17.50;;;8.73;;
38513;SDS011;24282;48.400;10.808;2023-12-04T05:08:38;13.97;;;9.03;;
38513;SDS011;24282;48.400;10.808;2023-12-04T05:11:04;12.80;;;8.70;;
38513;SDS011;24282;48.400;10.808;2023-12-04T05:13:30;14.17;;;9.60;;
38513;SDS011;24282;48.400;10.808;2023-12-04T05:15:55;14.63;;;9.37;;
38513;SDS011;24282;48.400;10.808;2023-12-04T05:18:21;13.00;;;8.87;;
38513;SDS011;24282;48.400;10.808;2023-12-04T05:20:47;13.03;;;8.67;;
38513;SDS011;24282;48.400;10.808;2023-12-04T05:23:12;16.07;;;9.97;;
38513;SDS011;24282;48.400;10.808;2023-12-04T05:25:38;11.93;;;8.67;;
38513;SDS011;24282;48.400;10.808;2023-12-04T05:28:04;15.73;;;9.40;;
38513;SDS011;24282;48.400;10.808;2023-12-04T05:30:30;15.70;;;9.53;;
38513;SDS011;24282;48.400;10.808;2023-12-04T05:32:55;14.37;;;8.77;;
38513;SDS011;24282;48.400;10.808;2023-12-04T05:35:22;13.70;;;8.73;;
38513;SDS011;24282;48.400;10.808;2023-12-04T05:37:47;13.33;;;8.73;;
38513;SDS011;24282;48.400;10.808;2023-12-04T05:40:13;12.20;;;8.50;;
38513;SDS011;24282;48.400;10.808;2023-12-04T05:42:39;16.27;;;10.20;;
38513;SDS011;24282;48.400;10.808;2023-12-04T05:45:05;13.87;;;8.80;;
38513;SDS011;24282;48.400;10.808;2023-12-04T05:47:32;15.30;;;9.00;;
38513;SDS011;24282;48.400;10.808;2023-12-04T05:49:59;14.27;;;8.50;;
38513;SDS011;24282;48.400;10.808;2023-12-04T05:52:25;12.77;;;8.60;;
38513;SDS011;24282;48.400;10.808;2023-12-04T05:54:51;17.03;;;9.80;;
38513;SDS011;24282;48.400;10.808;2023-12-04T05:57:16;14.03;;;9.10;;
38513;SDS011;24282;48.400;10.808;2023-12-04T05:59:42;13.83;;;9.00;;
38513;SDS011;24282;48.400;10.808;2023-12-04T06:02:08;13.00;;;9.13;;
38513;SDS011;24282;48.400;10.808;2023-12-04T06:04:34;14.17;;;8.87;;
38513;SDS011;24282;48.400;10.808;2023-12-04T06:07:00;15.80;;;10.07;;
38513;SDS011;24282;48.400;10.808;2023-12-04T06:09:25;15.87;;;9.97;;
38513;SDS011;24282;48.400;10.808;2023-12-04T06:11:51;15.53;;;10.30;;
38513;SDS011;24282;48.400;10.808;2023-12-04T06:14:17;16.57;;;10.43;;
38513;SDS011;24282;48.400;10.808;2023-12-04T06:16:42;17.80;;;11.30;;
38513;SDS011;24282;48.400;10.808;2023-12-04T06:19:08;16.37;;;10.30;;
38513;SDS011;24282;48.400;10.808;2023-12-04T06:21:34;17.30;;;11.57;;
38513;SDS011;24282;48.400;10.808;2023-12-04T06:23:59;19.13;;;11.13;;
38513;SDS011;24282;48.400;10.808;2023-12-04T06:26:25;16.27;;;9.90;;
38513;SDS011;24282;48.400;10.808;2023-12-04T06:28:51;17.03;;;11.10;;
38513;SDS011;24282;48.400;10.808;2023-12-04T06:31:17;16.50;;;10.17;;
38513;SDS011;24282;48.400;10.808;2023-12-04T06:33:44;17.77;;;10.97;;
38513;SDS011;24282;48.400;10.808;2023-12-04T06:36:10;15.17;;;10.00;;
38513;SDS011;24282;48.400;10.808;2023-12-04T06:38:39;16.77;;;11.57;;
38513;SDS011;24282;48.400;10.808;2023-12-04T06:41:05;18.07;;;12.13;;
38513;SDS011;24282;48.400;10.808;2023-12-04T06:43:32;16.87;;;11.37;;
38513;SDS011;24282;48.400;10.808;2023-12-04T06:45:58;18.23;;;10.17;;
38513;SDS011;24282;48.400;10.808;2023-12-04T06:48:24;16.87;;;10.33;;
38513;SDS011;24282;48.400;10.808;2023-12-04T06:50:50;14.80;;;9.57;;
38513;SDS011;24282;48.400;10.808;2023-12-04T06:53:16;13.57;;;9.87;;
38513;SDS011;24282;48.400;10.808;2023-12-04T06:55:42;15.67;;;10.83;;
38513;SDS011;24282;48.400;10.808;2023-12-04T06:58:08;17.07;;;11.17;;
38513;SDS011;24282;48.400;10.808;2023-12-04T07:00:33;14.73;;;10.53;;
38513;SDS011;24282;48.400;10.808;2023-12-04T07:02:59;17.03;;;11.07;;
38513;SDS011;24282;48.400;10.808;2023-12-04T07:05:25;17.50;;;10.47;;
38513;SDS011;24282;48.400;10.808;2023-12-04T07:07:50;17.33;;;11.50;;
38513;SDS011;24282;48.400;10.808;2023-12-04T07:10:16;17.70;;;10.53;;
38513;SDS011;24282;48.400;10.808;2023-12-04T07:12:42;18.73;;;11.27;;
38513;SDS011;24282;48.400;10.808;2023-12-04T07:15:09;17.37;;;11.63;;
38513;SDS011;24282;48.400;10.808;2023-12-04T07:17:36;16.43;;;11.03;;
38513;SDS011;24282;48.400;10.808;2023-12-04T07:20:02;16.23;;;11.10;;
38513;SDS011;24282;48.400;10.808;2023-12-04T07:22:32;21.57;;;9.83;;
38513;SDS011;24282;48.400;10.808;2023-12-04T07:24:58;14.70;;;9.73;;
38513;SDS011;24282;48.400;10.808;2023-12-04T07:27:24;15.40;;;9.87;;
38513;SDS011;24282;48.400;10.808;2023-12-04T07:29:50;16.83;;;11.13;;
38513;SDS011;24282;48.400;10.808;2023-12-04T07:32:16;15.73;;;11.17;;
38513;SDS011;24282;48.400;10.808;2023-12-04T07:34:43;19.07;;;11.30;;
38513;SDS011;24282;48.400;10.808;2023-12-04T07:37:09;15.57;;;11.00;;
38513;SDS011;24282;48.400;10.808;2023-12-04T07:39:35;17.27;;;10.83;;
38513;SDS011;24282;48.400;10.808;2023-12-04T07:42:01;21.27;;;13.07;;
38513;SDS011;24282;48.400;10.808;2023-12-04T07:44:27;22.60;;;12.17;;
38513;SDS011;24282;48.400;10.808;2023-12-04T07:46:52;16.57;;;11.60;;
38513;SDS011;24282;48.400;10.808;2023-12-04T07:49:18;19.57;;;12.77;;
38513;SDS011;24282;48.400;10.808;2023-12-04T07:51:44;17.80;;;11.67;;
38513;SDS011;24282;48.400;10.808;2023-12-04T07:54:09;18.00;;;11.13;;
38513;SDS011;24282;48.400;10.808;2023-12-04T07:56:35;17.07;;;11.23;;
38513;SDS011;24282;48.400;10.808;2023-12-04T07:59:01;17.70;;;10.47;;
38513;SDS011;24282;48.400;10.808;2023-12-04T08:01:27;20.33;;;11.73;;
38513;SDS011;24282;48.400;10.808;2023-12-04T08:03:52;18.97;;;11.63;;
38513;SDS011;24282;48.400;10.808;2023-12-04T08:06:18;16.53;;;10.53;;
38513;SDS011;24282;48.400;10.808;2023-12-04T08:08:44;14.57;;;9.90;;
38513;SDS011;24282;48.400;10.808;2023-12-04T08:11:10;17.13;;;10.37;;
38513;SDS011;24282;48.400;10.808;2023-12-04T08:13:38;16.13;;;11.13;;
38513;SDS011;24282;48.400;10.808;2023-12-04T08:16:04;16.63;;;11.43;;
38513;SDS011;24282;48.400;10.808;2023-12-04T08:18:30;19.20;;;12.90;;
38513;SDS011;24282;48.400;10.808;2023-12-04T08:20:56;17.60;;;11.73;;
38513;SDS011;24282;48.400;10.808;2023-12-04T08:23:25;17.77;;;10.97;;
38513;SDS011;24282;48.400;10.808;2023-12-04T08:25:50;18.03;;;11.43;;
38513;SDS011;24282;48.400;10.808;2023-12-04T08:28:16;17.47;;;11.57;;
38513;SDS011;24282;48.400;10.808;2023-12-04T08:30:42;16.80;;;11.20;;
38513;SDS011;24282;48.400;10.808;2023-12-04T08:33:07;16.33;;;10.80;;
38513;SDS011;24282;48.400;10.808;2023-12-04T08:35:33;18.50;;;12.37;;
38513;SDS011;24282;48.400;10.808;2023-12-04T08:37:59;16.67;;;11.30;;
38513;SDS011;24282;48.400;10.808;2023-12-04T08:40:24;16.57;;;10.57;;
38513;SDS011;24282;48.400;10.808;2023-12-04T08:42:50;17.20;;;11.30;;
38513;SDS011;24282;48.400;10.808;2023-12-04T08:45:16;16.37;;;10.80;;
38513;SDS011;24282;48.400;10.808;2023-12-04T08:47:41;18.23;;;12.30;;
38513;SDS011;24282;48.400;10.808;2023-12-04T08:50:07;30.50;;;17.20;;
38513;SDS011;24282;48.400;10.808;2023-12-04T08:52:34;37.93;;;22.13;;
38513;SDS011;24282;48.400;10.808;2023-12-04T08:55:00;21.03;;;13.87;;
38513;SDS011;24282;48.400;10.808;2023-12-04T08:57:26;22.73;;;14.80;;
38513;SDS011;24282;48.400;10.808;2023-12-04T08:59:52;28.30;;;17.90;;
38513;SDS011;24282;48.400;10.808;2023-12-04T09:02:18;24.73;;;16.53;;
38513;SDS011;24282;48.400;10.808;2023-12-04T09:04:44;20.63;;;14.63;;
38513;SDS011;24282;48.400;10.808;2023-12-04T09:07:09;21.47;;;13.73;;
38513;SDS011;24282;48.400;10.808;2023-12-04T09:09:35;18.43;;;12.13;;
38513;SDS011;24282;48.400;10.808;2023-12-04T09:12:01;18.60;;;12.17;;
38513;SDS011;24282;48.400;10.808;2023-12-04T09:14:26;20.27;;;13.37;;
38513;SDS011;24282;48.400;10.808;2023-12-04T09:16:53;20.93;;;12.87;;
38513;SDS011;24282;48.400;10.808;2023-12-04T09:19:18;21.53;;;13.70;;
38513;SDS011;24282;48.400;10.808;2023-12-04T09:21:44;20.73;;;13.27;;
38513;SDS011;24282;48.400;10.808;2023-12-04T09:24:10;21.97;;;13.93;;
38513;SDS011;24282;48.400;10.808;2023-12-04T09:26:35;20.97;;;14.73;;
38513;SDS011;24282;48.400;10.808;2023-12-04T09:29:01;19.67;;;13.17;;
38513;SDS011;24282;48.400;10.808;2023-12-04T09:31:27;18.90;;;12.80;;
38513;SDS011;24282;48.400;10.808;2023-12-04T09:33:53;21.27;;;14.47;;
38513;SDS011;24282;48.400;10.808;2023-12-04T09:36:19;20.03;;;12.87;;
38513;SDS011;24282;48.400;10.808;2023-12-04T09:38:44;17.23;;;12.70;;
38513;SDS011;24282;48.400;10.808;2023-12-04T09:41:10;20.83;;;13.43;;
38513;SDS011;24282;48.400;10.808;2023-12-04T09:43:37;20.50;;;13.40;;
38513;SDS011;24282;48.400;10.808;2023-12-04T09:46:04;17.73;;;12.33;;
38513;SDS011;24282;48.400;10.808;2023-12-04T09:48:29;20.80;;;13.57;;
38513;SDS011;24282;48.400;10.808;2023-12-04T09:50:57;20.27;;;13.73;;
38513;SDS011;24282;48.400;10.808;2023-12-04T09:53:23;19.20;;;14.23;;
38513;SDS011;24282;48.400;10.808;2023-12-04T09:55:51;18.47;;;13.50;;
38513;SDS011;24282;48.400;10.808;2023-12-04T09:58:21;18.03;;;13.10;;
38513;SDS011;24282;48.400;10.808;2023-12-04T10:00:50;18.73;;;13.63;;
38513;SDS011;24282;48.400;10.808;2023-12-04T10:03:20;20.47;;;13.73;;
38513;SDS011;24282;48.400;10.808;2023-12-04T10:05:46;21.47;;;14.50;;
38513;SDS011;24282;48.400;10.808;2023-12-04T10:08:12;20.93;;;14.70;;
38513;SDS011;24282;48.400;10.808;2023-12-04T10:10:38;22.33;;;14.83;;
38513;SDS011;24282;48.400;10.808;2023-12-04T10:13:04;19.97;;;13.73;;
38513;SDS011;24282;48.400;10.808;2023-12-04T10:15:30;22.43;;;15.30;;
38513;SDS011;24282;48.400;10.808;2023-12-04T10:17:56;21.40;;;14.73;;
38513;SDS011;24282;48.400;10.808;2023-12-04T10:20:21;23.87;;;16.20;;
38513;SDS011;24282;48.400;10.808;2023-12-04T10:22:59;21.47;;;14.20;;
38513;SDS011;24282;48.400;10.808;2023-12-04T10:25:26;22.60;;;15.63;;
38513;SDS011;24282;48.400;10.808;2023-12-04T10:27:55;20.37;;;13.93;;
38513;SDS011;24282;48.400;10.808;2023-12-04T10:30:35;22.50;;;15.67;;
38513;SDS011;24282;48.400;10.808;2023-12-04T10:33:02;21.53;;;14.67;;
38513;SDS011;24282;48.400;10.808;2023-12-04T10:35:33;23.30;;;16.33;;
38513;SDS011;24282;48.400;10.808;2023-12-04T10:38:01;25.67;;;16.63;;
38513;SDS011;24282;48.400;10.808;2023-12-04T10:40:28;21.60;;;14.83;;
38513;SDS011;24282;48.400;10.808;2023-12-04T10:45:40;21.67;;;14.63;;
38513;SDS011;24282;48.400;10.808;2023-12-04T10:48:07;20.60;;;14.03;;
38513;SDS011;24282;48.400;10.808;2023-12-04T10:50:34;20.73;;;14.53;;
38513;SDS011;24282;48.400;10.808;2023-12-04T10:53:03;25.80;;;17.17;;
38513;SDS011;24282;48.400;10.808;2023-12-04T10:55:33;23.97;;;16.27;;
38513;SDS011;24282;48.400;10.808;2023-12-04T10:58:09;22.97;;;16.03;;
38513;SDS011;24282;48.400;10.808;2023-12-04T11:00:40;25.33;;;16.97;;
38513;SDS011;24282;48.400;10.808;2023-12-04T11:03:12;19.63;;;14.23;;
38513;SDS011;24282;48.400;10.808;2023-12-04T11:06:00;20.90;;;14.13;;
38513;SDS011;24282;48.400;10.808;2023-12-04T11:08:29;21.70;;;14.23;;
38513;SDS011;24282;48.400;10.808;2023-12-04T11:10:59;21.97;;;15.70;;
38513;SDS011;24282;48.400;10.808;2023-12-04T11:13:29;21.63;;;13.90;;
38513;SDS011;24282;48.400;10.808;2023-12-04T11:16:07;26.57;;;17.00;;
38513;SDS011;24282;48.400;10.808;2023-12-04T11:18:48;23.50;;;15.33;;
38513;SDS011;24282;48.400;10.808;2023-12-04T11:21:18;22.92;;;15.98;;
38513;SDS011;24282;48.400;10.808;2023-12-04T11:23:45;22.23;;;15.33;;
38513;SDS011;24282;48.400;10.808;2023-12-04T11:26:12;21.83;;;15.70;;
38513;SDS011;24282;48.400;10.808;2023-12-04T11:28:40;25.63;;;17.20;;
38513;SDS011;24282;48.400;10.808;2023-12-04T11:31:06;28.07;;;18.83;;
38513;SDS011;24282;48.400;10.808;2023-12-04T11:33:36;23.20;;;15.73;;
38513;SDS011;24282;48.400;10.808;2023-12-04T11:36:06;27.77;;;17.77;;
38513;SDS011;24282;48.400;10.808;2023-12-04T11:38:34;25.10;;;17.53;;
38513;SDS011;24282;48.400;10.808;2023-12-04T11:41:11;23.90;;;16.47;;
38513;SDS011;24282;48.400;10.808;2023-12-04T11:43:40;24.67;;;15.57;;
38513;SDS011;24282;48.400;10.808;2023-12-04T11:46:08;21.13;;;15.43;;
38513;SDS011;24282;48.400;10.808;2023-12-04T11:48:37;19.27;;;14.47;;
38513;SDS011;24282;48.400;10.808;2023-12-04T11:51:05;21.37;;;14.33;;
38513;SDS011;24282;48.400;10.808;2023-12-04T11:53:32;20.40;;;14.00;;
38513;SDS011;24282;48.400;10.808;2023-12-04T11:56:08;20.30;;;13.80;;
38513;SDS011;24282;48.400;10.808;2023-12-04T11:58:41;21.00;;;14.65;;
38513;SDS011;24282;48.400;10.808;2023-12-04T12:01:08;19.57;;;13.53;;
38513;SDS011;24282;48.400;10.808;2023-12-04T12:03:34;20.23;;;14.90;;
38513;SDS011;24282;48.400;10.808;2023-12-04T12:06:00;19.53;;;14.83;;
38513;SDS011;24282;48.400;10.808;2023-12-04T12:08:26;21.00;;;15.17;;
38513;SDS011;24282;48.400;10.808;2023-12-04T12:10:54;19.87;;;14.77;;
38513;SDS011;24282;48.400;10.808;2023-12-04T12:13:20;20.00;;;14.80;;
38513;SDS011;24282;48.400;10.808;2023-12-04T12:15:47;19.40;;;14.27;;
38513;SDS011;24282;48.400;10.808;2023-12-04T12:18:15;19.20;;;13.53;;
38513;SDS011;24282;48.400;10.808;2023-12-04T12:20:41;19.33;;;13.93;;
38513;SDS011;24282;48.400;10.808;2023-12-04T12:23:07;18.30;;;13.47;;
38513;SDS011;24282;48.400;10.808;2023-12-04T12:25:34;17.73;;;13.27;;
38513;SDS011;24282;48.400;10.808;2023-12-04T12:28:07;20.97;;;13.80;;
38513;SDS011;24282;48.400;10.808;2023-12-04T12:30:33;21.60;;;14.80;;
38513;SDS011;24282;48.400;10.808;2023-12-04T12:32:58;19.17;;;14.60;;
38513;SDS011;24282;48.400;10.808;2023-12-04T12:35:24;19.13;;;13.73;;
38513;SDS011;24282;48.400;10.808;2023-12-04T12:37:50;21.63;;;14.70;;
38513;SDS011;24282;48.400;10.808;2023-12-04T12:40:20;19.93;;;14.77;;
38513;SDS011;24282;48.400;10.808;2023-12-04T12:42:46;20.67;;;14.03;;
38513;SDS011;24282;48.400;10.808;2023-12-04T12:45:14;18.10;;;13.60;;
38513;SDS011;24282;48.400;10.808;2023-12-04T12:47:40;20.17;;;14.00;;
38513;SDS011;24282;48.400;10.808;2023-12-04T12:50:10;18.23;;;14.60;;
38513;SDS011;24282;48.400;10.808;2023-12-04T12:52:37;19.93;;;14.50;;
38513;SDS011;24282;48.400;10.808;2023-12-04T12:55:03;17.53;;;13.43;;
38513;SDS011;24282;48.400;10.808;2023-12-04T12:57:30;21.17;;;14.77;;
38513;SDS011;24282;48.400;10.808;2023-12-04T12:59:55;21.80;;;15.87;;
38513;SDS011;24282;48.400;10.808;2023-12-04T13:02:21;19.90;;;14.23;;
38513;SDS011;24282;48.400;10.808;2023-12-04T13:04:47;20.10;;;14.47;;
38513;SDS011;24282;48.400;10.808;2023-12-04T13:07:13;17.33;;;13.10;;
38513;SDS011;24282;48.400;10.808;2023-12-04T13:09:39;15.17;;;11.57;;
38513;SDS011;24282;48.400;10.808;2023-12-04T13:12:05;19.53;;;13.70;;
38513;SDS011;24282;48.400;10.808;2023-12-04T13:14:33;18.17;;;13.60;;
38513;SDS011;24282;48.400;10.808;2023-12-04T13:17:00;19.43;;;13.83;;
38513;SDS011;24282;48.400;10.808;2023-12-04T13:19:26;18.77;;;12.90;;
38513;SDS011;24282;48.400;10.808;2023-12-04T13:21:52;18.27;;;13.47;;
38513;SDS011;24282;48.400;10.808;2023-12-04T13:24:18;21.97;;;16.00;;
38513;SDS011;24282;48.400;10.808;2023-12-04T13:26:44;20.83;;;15.30;;
38513;SDS011;24282;48.400;10.808;2023-12-04T13:29:10;19.07;;;13.70;;
38513;SDS011;24282;48.400;10.808;2023-12-04T13:31:36;19.50;;;14.37;;
38513;SDS011;24282;48.400;10.808;2023-12-04T13:34:02;19.33;;;14.30;;
38513;SDS011;24282;48.400;10.808;2023-12-04T13:36:31;19.13;;;14.33;;
38513;SDS011;24282;48.400;10.808;2023-12-04T13:39:01;18.80;;;13.07;;
38513;SDS011;24282;48.400;10.808;2023-12-04T13:41:29;20.10;;;14.23;;
38513;SDS011;24282;48.400;10.808;2023-12-04T13:44:16;19.07;;;14.33;;
38513;SDS011;24282;48.400;10.808;2023-12-04T13:46:42;19.47;;;15.20;;
38513;SDS011;24282;48.400;10.808;2023-12-04T13:49:07;22.00;;;15.30;;
38513;SDS011;24282;48.400;10.808;2023-12-04T13:51:33;17.47;;;14.07;;
38513;SDS011;24282;48.400;10.808;2023-12-04T13:54:05;18.87;;;14.73;;
38513;SDS011;24282;48.400;10.808;2023-12-04T13:56:44;19.73;;;15.40;;
38513;SDS011;24282;48.400;10.808;2023-12-04T13:59:18;20.17;;;14.23;;
38513;SDS011;24282;48.400;10.808;2023-12-04T14:01:48;19.90;;;14.57;;
38513;SDS011;24282;48.400;10.808;2023-12-04T14:04:15;19.77;;;14.33;;
38513;SDS011;24282;48.400;10.808;2023-12-04T14:06:41;17.73;;;13.83;;
38513;SDS011;24282;48.400;10.808;2023-12-04T14:09:07;20.50;;;14.60;;
38513;SDS011;24282;48.400;10.808;2023-12-04T14:11:36;21.23;;;14.67;;
38513;SDS011;24282;48.400;10.808;2023-12-04T14:14:02;23.47;;;16.40;;